createdAt,value
2022-08-09T00:00:00.630Z,19.96
2022-08-09T00:02:56.845Z,20.01
2022-08-09T00:06:17.736Z,20.06
2022-08-09T00:08:11.148Z,20.11
2022-08-09T00:10:41.375Z,20.16
2022-08-09T00:13:17.147Z,20.21
2022-08-09T00:15:59.894Z,20.26
2022-08-09T00:18:35.037Z,20.29
2022-08-09T00:21:07.908Z,20.30
2022-08-09T00:23:55.554Z,20.32
2022-08-09T00:26:32.222Z,20.30
2022-08-09T00:29:03.183Z,20.29
2022-08-09T00:32:00.055Z,20.29
2022-08-09T00:34:19.194Z,20.27
2022-08-09T00:36:50.439Z,20.26
2022-08-09T00:40:09.511Z,20.28
2022-08-09T00:44:11.746Z,20.29
2022-08-09T00:44:55.002Z,20.30
2022-08-09T00:47:25.053Z,20.29
2022-08-09T00:49:56.501Z,20.31
2022-08-09T00:52:28.134Z,20.30
2022-08-09T00:55:01.664Z,20.29
2022-08-09T00:57:34.617Z,20.29
2022-08-09T01:00:21.347Z,20.26
2022-08-09T01:02:59.534Z,20.25
2022-08-09T01:05:50.785Z,20.25
2022-08-09T01:09:16.821Z,20.26
2022-08-09T01:12:36.157Z,20.26
2022-08-09T01:15:18.614Z,20.25
2022-08-09T01:18:01.279Z,20.26
2022-08-09T01:21:14.378Z,20.24
2022-08-09T01:24:01.964Z,20.24
2022-08-09T01:26:52.891Z,20.24
2022-08-09T01:29:41.341Z,20.23
2022-08-09T01:32:55.655Z,20.22
2022-08-09T01:35:51.906Z,20.23
2022-08-09T01:38:24.555Z,20.23
2022-08-09T01:41:06.211Z,20.24
2022-08-09T01:43:51.089Z,20.27
2022-08-09T01:46:35.790Z,20.30
2022-08-09T01:49:12.888Z,20.29
2022-08-09T01:51:53.998Z,20.24
2022-08-09T01:54:30.235Z,20.24
2022-08-09T01:57:11.609Z,20.23
2022-08-09T01:59:51.630Z,20.22
2022-08-09T02:02:30.125Z,20.21
2022-08-09T02:05:15.465Z,20.18
2022-08-09T02:08:41.053Z,20.19
2022-08-09T02:10:51.155Z,20.19
2022-08-09T02:13:26.299Z,20.19
2022-08-09T02:16:07.343Z,20.16
2022-08-09T02:18:38.770Z,20.10
2022-08-09T02:21:17.140Z,20.06
2022-08-09T02:23:54.748Z,20.01
2022-08-09T02:26:27.426Z,19.97
2022-08-09T02:29:05.478Z,19.93
2022-08-09T02:31:40.951Z,19.88
2022-08-09T02:34:40.936Z,19.83
2022-08-09T02:37:14.351Z,19.77
2022-08-09T02:40:01.390Z,19.73
2022-08-09T02:42:40.696Z,19.69
2022-08-09T02:45:18.292Z,19.67
2022-08-09T02:47:57.314Z,19.63
2022-08-09T02:50:33.486Z,19.60
2022-08-09T02:53:07.344Z,19.57
2022-08-09T02:55:57.284Z,19.54
2022-08-09T02:58:36.331Z,19.51
2022-08-09T03:01:10.951Z,19.49
2022-08-09T03:04:12.823Z,19.45
2022-08-09T03:06:29.938Z,19.43
2022-08-09T03:08:58.546Z,19.41
2022-08-09T03:12:04.312Z,19.38
2022-08-09T03:14:16.248Z,19.36
2022-08-09T03:16:47.722Z,19.33
2022-08-09T03:19:58.593Z,19.32
2022-08-09T03:22:11.767Z,19.31
2022-08-09T03:24:52.382Z,19.30
2022-08-09T03:27:22.289Z,19.29
2022-08-09T03:29:58.121Z,19.29
2022-08-09T03:32:36.803Z,19.30
2022-08-09T03:35:05.079Z,19.32
2022-08-09T03:37:55.628Z,19.41
2022-08-09T03:40:25.754Z,19.47
2022-08-09T03:42:58.233Z,19.53
2022-08-09T03:46:05.177Z,19.56
2022-08-09T03:48:12.475Z,19.63
2022-08-09T03:50:47.074Z,19.72
2022-08-09T03:53:17.521Z,19.78
2022-08-09T03:55:49.060Z,19.84
2022-08-09T03:58:17.055Z,19.91
2022-08-09T04:00:48.853Z,20.00
2022-08-09T04:03:24.988Z,20.06
2022-08-09T04:06:05.219Z,20.14
2022-08-09T04:08:35.423Z,20.23
2022-08-09T04:11:02.492Z,20.36
2022-08-09T04:14:36.968Z,20.49
2022-08-09T04:16:20.007Z,20.61
2022-08-09T04:18:49.243Z,20.72
2022-08-09T04:21:18.628Z,20.83
2022-08-09T04:23:54.530Z,20.94
2022-08-09T04:26:35.188Z,21.04
2022-08-09T04:29:10.803Z,21.14
2022-08-09T04:31:47.365Z,21.23
2022-08-09T04:34:14.527Z,21.35
2022-08-09T04:36:50.342Z,21.42
2022-08-09T04:39:17.640Z,21.54
2022-08-09T04:41:44.672Z,21.61
2022-08-09T04:44:14.322Z,21.67
2022-08-09T04:46:58.257Z,21.73
2022-08-09T04:49:52.235Z,21.86
2022-08-09T04:52:32.018Z,22.05
2022-08-09T04:55:01.641Z,22.15
2022-08-09T04:57:54.379Z,22.23
2022-08-09T05:00:16.926Z,22.34
2022-08-09T05:02:51.786Z,22.43
2022-08-09T05:05:32.243Z,22.52
2022-08-09T05:08:08.571Z,22.61
2022-08-09T05:10:36.785Z,22.65
2022-08-09T05:13:04.243Z,22.70
2022-08-09T05:15:39.385Z,22.69
2022-08-09T05:18:38.947Z,22.69
2022-08-09T05:20:57.313Z,22.71
2022-08-09T05:23:55.350Z,22.74
2022-08-09T05:26:11.396Z,22.71
2022-08-09T05:28:49.576Z,22.70
2022-08-09T05:31:19.295Z,22.69
2022-08-09T05:34:06.199Z,22.70
2022-08-09T05:36:47.099Z,22.71
2022-08-09T05:39:28.330Z,22.74
2022-08-09T05:42:01.478Z,22.74
2022-08-09T05:44:34.525Z,22.74
2022-08-09T05:47:05.635Z,22.72
2022-08-09T05:50:24.257Z,22.70
2022-08-09T05:52:26.261Z,22.67
2022-08-09T05:54:57.880Z,22.67
2022-08-09T05:57:51.177Z,22.70
2022-08-09T06:00:17.447Z,22.70
2022-08-09T06:02:46.650Z,22.70
2022-08-09T06:05:14.208Z,22.69
2022-08-09T06:07:43.206Z,22.70
2022-08-09T06:10:15.843Z,22.69
2022-08-09T06:12:45.283Z,22.68
2022-08-09T06:15:24.830Z,22.65
2022-08-09T06:17:53.614Z,22.64
2022-08-09T06:20:20.973Z,22.63
2022-08-09T06:22:48.224Z,22.63
2022-08-09T06:25:16.808Z,22.62
2022-08-09T06:27:51.307Z,22.64
2022-08-09T06:30:19.300Z,22.67
2022-08-09T06:32:59.691Z,22.75
2022-08-09T06:35:35.625Z,22.82
2022-08-09T06:38:16.523Z,22.86
2022-08-09T06:40:48.471Z,22.90
2022-08-09T06:43:22.365Z,22.97
2022-08-09T06:46:07.908Z,23.03
2022-08-09T06:48:42.674Z,23.05
2022-08-09T06:51:11.366Z,23.11
2022-08-09T06:53:39.442Z,23.16
2022-08-09T06:56:07.688Z,23.18
2022-08-09T07:00:46.374Z,23.26
2022-08-09T07:01:35.535Z,23.35
2022-08-09T07:04:11.697Z,23.47
2022-08-09T07:06:48.048Z,23.62
2022-08-09T07:09:57.311Z,23.79
2022-08-09T07:12:17.343Z,23.98
2022-08-09T07:14:50.880Z,24.13
2022-08-09T07:17:19.896Z,24.25
2022-08-09T07:19:48.153Z,24.37
2022-08-09T07:22:18.554Z,24.46
2022-08-09T07:24:54.609Z,24.56
2022-08-09T07:27:27.051Z,24.65
2022-08-09T07:30:03.072Z,24.78
2022-08-09T07:32:32.123Z,24.90
2022-08-09T07:35:10.510Z,25.05
2022-08-09T07:37:45.620Z,25.17
2022-08-09T07:40:18.500Z,25.28
2022-08-09T07:42:54.595Z,25.36
2022-08-09T07:45:40.393Z,25.44
2022-08-09T07:48:28.480Z,25.51
2022-08-09T07:51:03.214Z,25.55
2022-08-09T07:54:06.829Z,25.60
2022-08-09T07:56:38.792Z,25.68
2022-08-09T07:59:16.003Z,25.75
2022-08-09T08:02:00.034Z,25.80
2022-08-09T08:04:32.370Z,25.83
2022-08-09T08:07:15.416Z,25.86
2022-08-09T08:09:54.810Z,25.89
2022-08-09T08:12:33.041Z,25.95
2022-08-09T08:15:00.400Z,25.99
2022-08-09T08:17:51.965Z,26.01
2022-08-09T08:20:15.390Z,26.05
2022-08-09T08:22:43.150Z,26.08
2022-08-09T08:25:13.832Z,26.11
2022-08-09T08:27:43.164Z,26.09
2022-08-09T08:30:17.806Z,26.05
2022-08-09T08:32:53.659Z,26.01
2022-08-09T08:35:22.722Z,25.97
2022-08-09T08:37:59.904Z,25.93
2022-08-09T08:40:35.399Z,25.87
2022-08-09T08:43:08.986Z,25.82
2022-08-09T08:45:51.638Z,25.81
2022-08-09T08:48:22.615Z,25.83
2022-08-09T08:50:58.022Z,25.86
2022-08-09T08:53:32.122Z,25.95
2022-08-09T08:56:06.504Z,26.07
2022-08-09T08:58:35.898Z,26.16
2022-08-09T09:01:03.625Z,26.23
2022-08-09T09:03:38.122Z,26.32
2022-08-09T09:06:06.803Z,26.41
2022-08-09T09:08:40.751Z,26.53
2022-08-09T09:11:13.613Z,26.65
2022-08-09T09:13:55.642Z,26.73
2022-08-09T09:16:34.116Z,26.78
2022-08-09T09:22:15.848Z,26.83
2022-08-09T09:24:49.639Z,26.86
2022-08-09T09:28:05.478Z,26.85
2022-08-09T09:30:34.476Z,26.86
2022-08-09T09:33:16.525Z,26.85
2022-08-09T09:36:02.028Z,26.84
2022-08-09T09:38:50.288Z,26.83
2022-08-09T09:41:23.521Z,26.80
2022-08-09T09:44:12.961Z,26.78
2022-08-09T09:46:42.856Z,26.76
2022-08-09T09:49:12.938Z,26.78
2022-08-09T09:51:41.162Z,26.82
2022-08-09T09:54:21.127Z,26.88
2022-08-09T09:56:53.272Z,26.93
2022-08-09T09:59:37.101Z,27.02
2022-08-09T10:02:05.983Z,27.09
2022-08-09T10:04:34.927Z,27.16
2022-08-09T10:07:03.586Z,27.26
2022-08-09T10:09:48.949Z,27.36
2022-08-09T10:12:29.490Z,27.42
2022-08-09T10:15:10.771Z,27.47
2022-08-09T10:17:56.567Z,27.54
2022-08-09T10:20:35.437Z,27.57
2022-08-09T10:23:20.328Z,27.62
2022-08-09T10:26:06.586Z,27.75
2022-08-09T10:28:40.326Z,27.93
2022-08-09T10:34:10.318Z,28.15
2022-08-09T10:36:51.185Z,28.17
2022-08-09T10:39:19.197Z,28.14
2022-08-09T10:41:47.690Z,28.07
2022-08-09T10:44:22.226Z,28.00
2022-08-09T10:48:12.084Z,27.97
2022-08-09T10:50:57.327Z,27.89
2022-08-09T10:54:04.901Z,27.79
2022-08-09T10:56:35.736Z,27.69
2022-08-09T10:59:43.054Z,27.60
2022-08-09T11:03:15.880Z,27.52
2022-08-09T11:05:39.348Z,27.42
2022-08-09T11:08:47.934Z,27.37
2022-08-09T11:11:19.167Z,27.34
2022-08-09T11:13:50.021Z,27.29
2022-08-09T11:16:34.905Z,27.23
2022-08-09T11:19:08.035Z,27.18
2022-08-09T11:22:05.139Z,27.15
2022-08-09T11:25:25.759Z,27.17
2022-08-09T11:28:03.919Z,27.17
2022-08-09T11:30:36.528Z,27.16
2022-08-09T11:33:16.413Z,27.17
2022-08-09T11:35:52.836Z,27.19
2022-08-09T11:38:34.050Z,27.15
2022-08-09T11:41:37.984Z,27.16
2022-08-09T11:44:08.430Z,27.16
2022-08-09T11:47:00.289Z,27.18
2022-08-09T11:50:55.018Z,27.22
2022-08-09T11:53:28.186Z,27.30
2022-08-09T11:55:53.538Z,27.35
2022-08-09T11:58:32.541Z,27.39
2022-08-09T12:01:08.682Z,27.43
2022-08-09T12:03:55.000Z,27.48
2022-08-09T12:06:32.207Z,27.54
2022-08-09T12:09:15.243Z,27.57
2022-08-09T12:12:20.004Z,27.62
2022-08-09T12:15:04.162Z,27.60
2022-08-09T12:17:42.359Z,27.59
2022-08-09T12:20:21.480Z,27.61
2022-08-09T12:22:59.944Z,27.63
2022-08-09T12:25:37.578Z,27.67
2022-08-09T12:29:12.577Z,27.73
2022-08-09T12:30:57.269Z,27.78
2022-08-09T12:33:35.353Z,27.82
2022-08-09T12:36:27.439Z,27.90
2022-08-09T12:39:00.264Z,28.01
2022-08-09T12:41:38.280Z,28.11
2022-08-09T12:44:10.100Z,28.20
2022-08-09T12:46:49.084Z,28.29
2022-08-09T12:49:18.763Z,28.36
2022-08-09T12:52:02.319Z,28.36
2022-08-09T12:56:11.061Z,28.40
2022-08-09T12:57:46.250Z,28.43
2022-08-09T13:00:33.797Z,28.45
2022-08-09T13:03:05.959Z,28.47
2022-08-09T13:05:51.488Z,28.47
2022-08-09T13:08:40.729Z,28.44
2022-08-09T13:11:22.750Z,28.42
2022-08-09T13:14:37.029Z,28.38
2022-08-09T13:16:51.348Z,28.33
2022-08-09T13:20:07.706Z,28.23
2022-08-09T13:22:36.661Z,28.15
2022-08-09T13:25:13.869Z,28.09
2022-08-09T13:27:48.586Z,28.07
2022-08-09T13:30:50.470Z,27.97
2022-08-09T13:33:22.476Z,27.94
2022-08-09T13:36:38.170Z,27.92
2022-08-09T13:38:57.702Z,27.91
2022-08-09T13:41:58.574Z,27.91
2022-08-09T13:44:13.522Z,27.88
2022-08-09T13:47:26.758Z,27.83
2022-08-09T13:49:39.750Z,27.81
2022-08-09T13:52:23.482Z,27.81
2022-08-09T13:55:00.820Z,27.78
2022-08-09T13:57:36.332Z,27.77
2022-08-09T14:00:15.422Z,27.80
2022-08-09T14:03:04.411Z,27.87
2022-08-09T14:05:56.708Z,27.95
2022-08-09T14:08:21.627Z,27.97
2022-08-09T14:10:51.930Z,27.94
2022-08-09T14:14:15.566Z,27.92
2022-08-09T14:16:14.941Z,27.96
2022-08-09T14:18:49.792Z,27.96
2022-08-09T14:21:22.698Z,27.99
2022-08-09T14:23:55.580Z,28.08
2022-08-09T14:26:33.682Z,28.15
2022-08-09T14:29:25.527Z,28.21
2022-08-09T14:31:55.066Z,28.24
2022-08-09T14:34:31.243Z,28.24
2022-08-09T14:37:06.829Z,28.23
2022-08-09T14:39:47.033Z,28.27
2022-08-09T14:42:30.565Z,28.33
2022-08-09T14:46:39.512Z,28.36
2022-08-09T14:47:57.955Z,28.23
2022-08-09T14:50:33.036Z,28.05
2022-08-09T14:53:11.446Z,27.94
2022-08-09T14:55:41.903Z,27.84
2022-08-09T14:58:10.546Z,27.82
2022-08-09T15:00:42.366Z,27.85
2022-08-09T15:03:16.738Z,27.90
2022-08-09T15:05:52.493Z,27.88
2022-08-09T15:08:25.649Z,27.80
2022-08-09T15:11:00.692Z,27.65
2022-08-09T15:13:29.938Z,27.24
2022-08-09T15:16:16.446Z,26.81
2022-08-09T15:18:43.492Z,26.40
2022-08-09T15:22:00.526Z,26.05
2022-08-09T15:24:12.891Z,25.72
2022-08-09T15:26:46.192Z,25.47
2022-08-09T15:30:58.488Z,25.27
2022-08-09T15:32:01.422Z,25.14
2022-08-09T15:34:34.626Z,25.02
2022-08-09T15:37:23.723Z,24.95
2022-08-09T15:39:53.759Z,24.87
2022-08-09T15:42:22.879Z,24.76
2022-08-09T15:44:50.336Z,24.57
2022-08-09T15:47:22.512Z,24.46
2022-08-09T15:50:04.512Z,24.36
2022-08-09T15:52:38.562Z,24.26
2022-08-09T15:55:09.280Z,24.18
2022-08-09T15:57:44.406Z,24.09
2022-08-09T16:00:26.203Z,24.02
2022-08-09T16:02:56.572Z,23.99
2022-08-09T16:05:47.769Z,23.98
2022-08-09T16:08:30.436Z,23.93
2022-08-09T16:11:03.076Z,23.89
2022-08-09T16:14:04.895Z,23.89
2022-08-09T16:16:19.406Z,23.88
2022-08-09T16:18:47.728Z,23.85
2022-08-09T16:21:17.494Z,23.80
2022-08-09T16:23:58.360Z,23.74
2022-08-09T16:26:35.664Z,23.68
2022-08-09T16:29:11.447Z,23.64
2022-08-09T16:32:18.960Z,23.61
2022-08-09T16:34:55.465Z,23.54
2022-08-09T16:37:56.047Z,23.47
2022-08-09T16:40:11.592Z,23.34
2022-08-09T16:42:45.342Z,23.26
2022-08-09T16:45:19.553Z,23.20
2022-08-09T16:48:37.915Z,23.10
2022-08-09T16:50:38.770Z,23.01
2022-08-09T16:53:06.500Z,22.94
2022-08-09T16:55:58.338Z,22.86
2022-08-09T16:58:24.758Z,22.84
2022-08-09T17:00:53.184Z,22.79
2022-08-09T17:03:23.259Z,22.73
2022-08-09T17:06:08.590Z,22.65
2022-08-09T17:08:57.332Z,22.65
2022-08-09T17:11:41.234Z,22.63
2022-08-09T17:14:25.421Z,22.47
2022-08-09T17:17:02.453Z,22.31
2022-08-09T17:20:06.130Z,22.30
2022-08-09T17:22:28.555Z,22.34
2022-08-09T17:25:09.865Z,22.34
2022-08-09T17:27:49.254Z,22.35
2022-08-09T17:30:28.439Z,22.36
2022-08-09T17:33:05.255Z,22.37
2022-08-09T17:35:46.121Z,22.39
2022-08-09T17:38:32.437Z,22.37
2022-08-09T17:41:03.027Z,22.39
2022-08-09T17:43:34.859Z,22.40
2022-08-09T17:46:07.613Z,22.38
2022-08-09T17:48:51.788Z,22.38
2022-08-09T17:51:21.071Z,22.39
2022-08-09T17:53:52.999Z,22.36
2022-08-09T17:56:35.647Z,22.32
2022-08-09T17:59:11.813Z,22.28
2022-08-09T18:02:06.788Z,22.27
2022-08-09T18:04:30.662Z,22.28
2022-08-09T18:06:57.642Z,22.30
2022-08-09T18:09:40.205Z,22.33
2022-08-09T18:12:19.568Z,22.36
2022-08-09T18:14:53.916Z,22.34
2022-08-09T18:18:02.238Z,22.32
2022-08-09T18:20:54.932Z,22.36
2022-08-09T18:23:05.115Z,22.37
2022-08-09T18:25:45.542Z,22.35
2022-08-09T18:30:35.792Z,22.32
2022-08-09T18:31:06.794Z,22.32
2022-08-09T18:33:34.504Z,22.30
2022-08-09T18:36:01.812Z,22.29
2022-08-09T18:38:28.786Z,22.29
2022-08-09T18:40:56.010Z,22.28
2022-08-09T18:43:25.210Z,22.29
2022-08-09T18:46:46.856Z,22.27
2022-08-09T18:48:39.275Z,22.24
2022-08-09T18:51:09.731Z,22.20
2022-08-09T18:53:59.812Z,22.15
2022-08-09T18:56:27.788Z,22.09
2022-08-09T18:58:57.039Z,22.04
2022-08-09T19:01:25.170Z,21.97
2022-08-09T19:04:01.427Z,21.93
2022-08-09T19:06:38.642Z,21.87
2022-08-09T19:09:08.506Z,21.81
2022-08-09T19:11:41.393Z,21.72
2022-08-09T19:14:08.452Z,21.66
2022-08-09T19:16:37.918Z,21.62
2022-08-09T19:19:25.122Z,21.59
2022-08-09T19:22:06.305Z,21.55
2022-08-09T19:25:11.955Z,21.52
2022-08-09T19:27:23.072Z,21.47
2022-08-09T19:30:23.239Z,21.40
2022-08-09T19:32:37.362Z,21.35
2022-08-09T19:35:05.617Z,21.30
2022-08-09T19:37:54.143Z,21.29
2022-08-09T19:40:21.693Z,21.24
2022-08-09T19:42:49.579Z,21.21
2022-08-09T19:45:17.719Z,21.22
2022-08-09T19:47:45.745Z,21.23
2022-08-09T19:50:50.122Z,21.21
2022-08-09T19:53:02.432Z,21.16
2022-08-09T19:55:52.825Z,21.16
2022-08-09T19:58:29.578Z,21.11
2022-08-09T20:00:57.977Z,21.08
2022-08-09T20:04:17.916Z,21.02
2022-08-09T20:06:22.333Z,20.96
2022-08-09T20:08:56.603Z,20.93
2022-08-09T20:11:26.886Z,20.92
2022-08-09T20:13:55.905Z,20.95
2022-08-09T20:16:35.604Z,21.01
2022-08-09T20:19:47.460Z,21.03
2022-08-09T20:21:57.235Z,21.04
2022-08-09T20:24:29.609Z,21.07
2022-08-09T20:27:05.467Z,21.09
2022-08-09T20:29:38.669Z,21.11
2022-08-09T20:32:29.749Z,21.14
2022-08-09T20:34:57.524Z,21.15
2022-08-09T20:37:25.119Z,21.16
2022-08-09T20:40:14.773Z,21.18
2022-08-09T20:42:39.082Z,21.22
2022-08-09T20:46:00.453Z,21.21
2022-08-09T20:47:55.104Z,21.20
2022-08-09T20:50:47.420Z,21.18
2022-08-09T20:53:35.042Z,21.17
2022-08-09T20:56:00.927Z,21.16
2022-08-09T20:58:32.518Z,21.14
2022-08-09T21:01:33.622Z,21.14
2022-08-09T21:05:49.013Z,21.15
2022-08-09T21:06:41.592Z,21.14
2022-08-09T21:09:13.708Z,21.13
2022-08-09T21:14:31.225Z,21.11
2022-08-09T21:17:00.184Z,21.09
2022-08-09T21:20:06.723Z,21.08
2022-08-09T21:22:35.906Z,21.06
2022-08-09T21:25:59.101Z,21.06
2022-08-09T21:28:34.435Z,21.08
2022-08-09T21:31:17.290Z,21.08
2022-08-09T21:33:52.401Z,21.06
2022-08-09T21:36:27.775Z,21.05
2022-08-09T21:38:58.811Z,21.03
2022-08-09T21:42:05.399Z,21.03
2022-08-09T21:44:33.956Z,21.04
2022-08-09T21:47:04.671Z,21.04
2022-08-09T21:49:40.608Z,21.03
2022-08-09T21:52:16.646Z,21.03
2022-08-09T21:54:49.548Z,21.05
2022-08-09T21:57:36.924Z,21.02
2022-08-09T22:00:14.984Z,21.00
2022-08-09T22:02:43.007Z,20.97
2022-08-09T22:05:22.267Z,20.95
2022-08-09T22:07:53.312Z,20.97
2022-08-09T22:10:22.963Z,20.94
2022-08-09T22:12:51.090Z,20.89
2022-08-09T22:15:20.540Z,20.84
2022-08-09T22:17:48.603Z,20.80
2022-08-09T22:20:21.582Z,20.75
2022-08-09T22:22:49.149Z,20.68
2022-08-09T22:26:06.754Z,20.61
2022-08-09T22:28:06.561Z,20.55
2022-08-09T22:30:34.520Z,20.47
2022-08-09T22:33:09.539Z,20.42
2022-08-09T22:36:01.739Z,20.39
2022-08-09T22:38:24.296Z,20.35
2022-08-09T22:40:57.403Z,20.31
2022-08-09T22:44:00.599Z,20.28
2022-08-09T22:48:16.714Z,20.25
2022-08-09T22:49:10.290Z,20.20
2022-08-09T22:51:43.328Z,20.15
2022-08-09T22:54:21.410Z,20.11
2022-08-09T22:56:50.827Z,20.09
2022-08-09T22:59:56.800Z,20.06
2022-08-09T23:02:08.701Z,20.04
2022-08-09T23:04:38.410Z,19.99
2022-08-09T23:08:23.391Z,19.95
2022-08-09T23:10:11.599Z,19.90
2022-08-09T23:12:38.591Z,19.86
2022-08-09T23:15:05.978Z,19.83
2022-08-09T23:17:33.414Z,19.80
2022-08-09T23:20:07.999Z,19.75
2022-08-09T23:22:35.911Z,19.71
2022-08-09T23:25:05.027Z,19.67
2022-08-09T23:27:32.862Z,19.63
2022-08-09T23:30:00.189Z,19.68
2022-08-09T23:32:27.607Z,19.73
2022-08-09T23:34:54.549Z,19.76
2022-08-09T23:37:22.893Z,19.76
2022-08-09T23:39:52.741Z,19.75
2022-08-09T23:42:19.612Z,19.75
2022-08-09T23:44:46.600Z,19.76
2022-08-09T23:47:14.467Z,19.75
2022-08-09T23:49:41.328Z,19.75
2022-08-09T23:52:08.263Z,19.75
2022-08-09T23:54:36.058Z,19.74
2022-08-09T23:57:03.314Z,19.72
2022-08-09T23:59:50.228Z,19.72
